Time,TemperatureF,DewpointF,PressureIn,WindDirection,WindDirectionDegrees,WindSpeedMPH,WindSpeedGustMPH,Humidity,HourlyPrecipIn,Conditions,Clouds,dailyrainin,SoftwareType,DateUTC
2013-03-06 00:09:00,43.3,35.9,29.48,ESE,112,2.2,-999.0,75,-99.99,,,0.00,Acu-Link.com,2013-03-06 05:09:00,
2013-03-06 00:24:00,42.3,33.6,29.50,ESE,112,1.7,-999.0,71,-99.99,,,0.00,Acu-Link.com,2013-03-06 05:24:00,
2013-03-06 00:39:00,41.5,30.6,29.51,East,90,2.2,-999.0,65,-99.99,,,0.00,Acu-Link.com,2013-03-06 05:39:00,
2013-03-06 00:54:00,41.5,30.6,29.52,West,270,6.8,-999.0,65,-99.99,,,0.00,Acu-Link.com,2013-03-06 05:54:00,
2013-03-06 01:11:00,41.5,29.5,29.52,West,270,3.7,-999.0,62,-99.99,,,0.00,Acu-Link.com,2013-03-06 06:11:00,
2013-03-06 01:27:00,40.8,28.0,29.53,West,270,2.7,-999.0,60,-99.99,,,0.00,Acu-Link.com,2013-03-06 06:27:00,
2013-03-06 01:42:00,40.8,26.8,29.53,NW,315,2.7,-999.0,57,-99.99,,,0.00,Acu-Link.com,2013-03-06 06:42:00,
2013-03-06 01:57:00,40.6,26.6,29.54,West,270,3.7,-999.0,57,-99.99,,,0.00,Acu-Link.com,2013-03-06 06:57:00,
2013-03-06 02:12:00,40.5,26.9,29.54,SE,135,1.7,-999.0,58,-99.99,,,0.00,Acu-Link.com,2013-03-06 07:12:00,
2013-03-06 02:27:00,40.1,24.8,29.55,West,270,2.7,-999.0,54,-99.99,,,0.00,Acu-Link.com,2013-03-06 07:27:00,
2013-03-06 02:42:00,40.1,23.4,29.53,WNW,292,3.2,-999.0,51,-99.99,,,0.00,Acu-Link.com,2013-03-06 07:42:00,
2013-03-06 02:57:00,39.9,25.5,29.54,West,270,2.7,-999.0,56,-99.99,,,0.00,Acu-Link.com,2013-03-06 07:57:00,
2013-03-06 03:12:00,39.7,26.2,29.54,WNW,292,2.7,-999.0,58,-99.99,,,0.00,Acu-Link.com,2013-03-06 08:12:00,
2013-03-06 03:27:00,39.4,24.2,29.54,SW,225,4.7,-999.0,54,-99.99,,,0.00,Acu-Link.com,2013-03-06 08:27:00,
2013-03-06 03:42:00,39.4,24.2,29.55,ESE,112,2.2,-999.0,54,-99.99,,,0.00,Acu-Link.com,2013-03-06 08:42:00,
2013-03-06 03:58:00,39.0,23.3,29.55,SW,225,1.7,-999.0,53,-99.99,,,0.00,Acu-Link.com,2013-03-06 08:58:00,
2013-03-06 04:23:00,39.0,22.4,29.56,WSW,247,2.2,-999.0,51,-99.99,,,0.00,Acu-Link.com,2013-03-06 09:23:00,
2013-03-06 04:38:00,38.5,21.5,29.57,East,90,0.0,-999.0,50,-99.99,,,0.00,Acu-Link.com,2013-03-06 09:38:00,
2013-03-06 04:53:00,38.3,21.8,29.58,North,0,3.2,-999.0,51,-99.99,,,0.00,Acu-Link.com,2013-03-06 09:53:00,
2013-03-06 05:08:00,37.9,20.0,29.59,West,270,1.7,-999.0,48,-99.99,,,0.00,Acu-Link.com,2013-03-06 10:08:00,
2013-03-06 05:23:00,37.2,18.9,29.59,ENE,67,2.2,-999.0,47,-99.99,,,0.00,Acu-Link.com,2013-03-06 10:23:00,
2013-03-06 05:38:00,36.3,19.0,29.60,West,270,2.7,-999.0,49,-99.99,,,0.00,Acu-Link.com,2013-03-06 10:38:00,
2013-03-06 05:54:00,35.8,18.1,29.59,SW,225,2.2,-999.0,48,-99.99,,,0.00,Acu-Link.com,2013-03-06 10:54:00,
2013-03-06 06:09:00,35.1,17.9,29.61,NNW,337,2.7,-999.0,49,-99.99,,,0.00,Acu-Link.com,2013-03-06 11:09:00,
2013-03-06 06:24:00,34.9,19.1,29.63,North,0,2.2,-999.0,52,-99.99,,,0.00,Acu-Link.com,2013-03-06 11:24:00,
2013-03-06 06:39:00,34.5,18.3,29.63,SW,225,3.2,-999.0,51,-99.99,,,0.00,Acu-Link.com,2013-03-06 11:39:00,
2013-03-06 06:54:00,34.3,18.1,29.63,WSW,247,4.2,-999.0,51,-99.99,,,0.00,Acu-Link.com,2013-03-06 11:54:00,
2013-03-06 07:09:00,34.2,18.0,29.63,West,270,2.7,-999.0,51,-99.99,,,0.00,Acu-Link.com,2013-03-06 12:09:00,
2013-03-06 07:24:00,34.2,18.9,29.64,SE,135,1.1,-999.0,53,-99.99,,,0.00,Acu-Link.com,2013-03-06 12:24:00,
2013-03-06 07:39:00,34.2,18.9,29.65,West,270,1.1,-999.0,53,-99.99,,,0.00,Acu-Link.com,2013-03-06 12:39:00,
2013-03-06 07:54:00,34.3,18.5,29.65,South,180,1.7,-999.0,52,-99.99,,,0.00,Acu-Link.com,2013-03-06 12:54:00,
2013-03-06 08:10:00,34.9,19.5,29.65,South,180,2.7,-999.0,53,-99.99,,,0.00,Acu-Link.com,2013-03-06 13:10:00,
2013-03-06 08:25:00,35.6,17.4,29.66,West,270,1.7,-999.0,47,-99.99,,,0.00,Acu-Link.com,2013-03-06 13:25:00,
2013-03-06 08:40:00,37.0,17.1,29.67,SSW,202,3.7,-999.0,44,-99.99,,,0.00,Acu-Link.com,2013-03-06 13:40:00,
2013-03-06 08:55:00,38.8,17.7,29.68,SSE,157,3.7,-999.0,42,-99.99,,,0.00,Acu-Link.com,2013-03-06 13:55:00,
2013-03-06 09:10:00,39.9,18.7,29.66,South,180,2.7,-999.0,42,-99.99,,,0.00,Acu-Link.com,2013-03-06 14:10:00,
2013-03-06 09:25:00,40.6,18.2,29.66,WNW,292,3.2,-999.0,40,-99.99,,,0.00,Acu-Link.com,2013-03-06 14:25:00,
2013-03-06 09:40:00,41.9,18.8,29.69,SSE,157,3.2,-999.0,39,-99.99,,,0.00,Acu-Link.com,2013-03-06 14:40:00,
2013-03-06 09:55:00,43.9,17.4,29.70,West,270,2.2,-999.0,34,-99.99,,,0.00,Acu-Link.com,2013-03-06 14:55:00,
2013-03-06 10:10:00,42.3,17.9,29.71,NNE,22,5.8,-999.0,37,-99.99,,,0.00,Acu-Link.com,2013-03-06 15:10:00,
2013-03-06 10:26:00,43.3,18.2,29.71,ENE,67,3.2,-999.0,36,-99.99,,,0.00,Acu-Link.com,2013-03-06 15:26:00,
2013-03-06 10:41:00,44.1,18.9,29.71,West,270,2.2,-999.0,36,-99.99,,,0.00,Acu-Link.com,2013-03-06 15:41:00,
2013-03-06 10:56:00,46.8,17.8,29.72,NW,315,3.7,-999.0,31,-99.99,,,0.00,Acu-Link.com,2013-03-06 15:56:00,
2013-03-06 11:11:00,46.4,18.2,29.72,SSE,157,5.3,-999.0,32,-99.99,,,0.00,Acu-Link.com,2013-03-06 16:11:00,
2013-03-06 11:26:00,45.0,17.6,29.73,WNW,292,7.8,-999.0,33,-99.99,,,0.00,Acu-Link.com,2013-03-06 16:26:00,
2013-03-06 11:41:00,46.2,18.0,29.72,WNW,292,5.3,-999.0,32,-99.99,,,0.00,Acu-Link.com,2013-03-06 16:41:00,
2013-03-06 11:56:00,47.7,20.0,29.72,SW,225,5.3,-999.0,33,-99.99,,,0.00,Acu-Link.com,2013-03-06 16:56:00,
2013-03-06 12:11:00,48.6,19.4,29.73,SSE,157,8.9,-999.0,31,-99.99,,,0.00,Acu-Link.com,2013-03-06 17:11:00,
2013-03-06 12:26:00,50.2,20.0,29.73,WNW,292,4.7,-999.0,30,-99.99,,,0.00,Acu-Link.com,2013-03-06 17:26:00,
2013-03-06 12:42:00,50.4,20.2,29.72,WNW,292,4.7,-999.0,30,-99.99,,,0.00,Acu-Link.com,2013-03-06 17:42:00,
2013-03-06 12:57:00,50.0,19.8,29.71,North,0,7.3,-999.0,30,-99.99,,,0.00,Acu-Link.com,2013-03-06 17:57:00,
2013-03-06 13:12:00,50.2,20.7,29.73,NW,315,4.2,-999.0,31,-99.99,,,0.00,Acu-Link.com,2013-03-06 18:12:00,
2013-03-06 13:27:00,49.8,21.1,29.74,NW,315,4.2,-999.0,32,-99.99,,,0.00,Acu-Link.com,2013-03-06 18:27:00,
2013-03-06 13:42:00,51.8,23.6,29.75,NW,315,7.3,-999.0,33,-99.99,,,0.00,Acu-Link.com,2013-03-06 18:42:00,
2013-03-06 13:57:00,49.3,22.1,29.75,West,270,3.7,-999.0,34,-99.99,,,0.00,Acu-Link.com,2013-03-06 18:57:00,
2013-03-06 14:12:00,49.3,22.8,29.76,ESE,112,6.8,-999.0,35,-99.99,,,0.00,Acu-Link.com,2013-03-06 19:12:00,
2013-03-06 14:27:00,47.3,21.1,29.76,WSW,247,3.2,-999.0,35,-99.99,,,0.00,Acu-Link.com,2013-03-06 19:27:00,
2013-03-06 14:42:00,47.3,21.1,29.76,SSW,202,2.7,-999.0,35,-99.99,,,0.00,Acu-Link.com,2013-03-06 19:42:00,
2013-03-06 14:58:00,46.4,21.6,29.77,NW,315,2.2,-999.0,37,-99.99,,,0.00,Acu-Link.com,2013-03-06 19:58:00,
2013-03-06 15:13:00,47.7,22.1,29.78,NNW,337,3.2,-999.0,36,-99.99,,,0.00,Acu-Link.com,2013-03-06 20:13:00,
2013-03-06 15:28:00,46.4,21.6,29.78,ENE,67,2.7,-999.0,37,-99.99,,,0.00,Acu-Link.com,2013-03-06 20:28:00,
2013-03-06 15:43:00,46.6,21.7,29.78,NE,45,2.2,-999.0,37,-99.99,,,0.00,Acu-Link.com,2013-03-06 20:43:00,
2013-03-06 15:58:00,47.3,22.4,29.78,West,270,7.3,-999.0,37,-99.99,,,0.00,Acu-Link.com,2013-03-06 20:58:00,
2013-03-06 16:13:00,46.2,22.6,29.79,North,0,3.2,-999.0,39,-99.99,,,0.00,Acu-Link.com,2013-03-06 21:13:00,
2013-03-06 16:28:00,46.8,21.9,29.80,SSW,202,2.2,-999.0,37,-99.99,,,0.00,Acu-Link.com,2013-03-06 21:28:00,
2013-03-06 16:43:00,45.1,21.6,29.81,West,270,2.7,-999.0,39,-99.99,,,0.00,Acu-Link.com,2013-03-06 21:43:00,
2013-03-06 16:58:00,45.3,21.8,29.81,NNW,337,3.7,-999.0,39,-99.99,,,0.00,Acu-Link.com,2013-03-06 21:58:00,
2013-03-06 17:14:00,44.2,22.6,29.83,West,270,1.1,-999.0,42,-99.99,,,0.00,Acu-Link.com,2013-03-06 22:14:00,
2013-03-06 17:29:00,43.7,22.7,29.84,SW,225,2.2,-999.0,43,-99.99,,,0.00,Acu-Link.com,2013-03-06 22:29:00,
2013-03-06 17:44:00,42.8,22.4,29.84,WSW,247,1.7,-999.0,44,-99.99,,,0.00,Acu-Link.com,2013-03-06 22:44:00,
2013-03-06 17:59:00,41.9,22.6,29.85,West,270,3.7,-999.0,46,-99.99,,,0.00,Acu-Link.com,2013-03-06 22:59:00,
2013-03-06 18:14:00,41.2,22.5,29.87,SW,225,1.7,-999.0,47,-99.99,,,0.00,Acu-Link.com,2013-03-06 23:14:00,
2013-03-06 18:29:00,40.3,22.7,29.88,WSW,247,1.1,-999.0,49,-99.99,,,0.00,Acu-Link.com,2013-03-06 23:29:00,
2013-03-06 18:44:00,39.7,22.6,29.89,SE,135,1.1,-999.0,50,-99.99,,,0.00,Acu-Link.com,2013-03-06 23:44:00,
2013-03-06 18:59:00,39.0,23.3,29.89,West,270,1.7,-999.0,53,-99.99,,,0.00,Acu-Link.com,2013-03-06 23:59:00,
2013-03-06 19:14:00,38.1,22.9,29.90,SW,225,1.7,-999.0,54,-99.99,,,0.00,Acu-Link.com,2013-03-07 00:14:00,
2013-03-06 19:29:00,37.4,22.7,29.90,SE,135,0.0,-999.0,55,-99.99,,,0.00,Acu-Link.com,2013-03-07 00:29:00,
2013-03-06 19:45:00,36.3,22.5,29.91,West,270,1.7,-999.0,57,-99.99,,,0.00,Acu-Link.com,2013-03-07 00:45:00,
2013-03-06 20:00:00,35.6,22.3,29.91,SSW,202,0.0,-999.0,58,-99.99,,,0.00,Acu-Link.com,2013-03-07 01:00:00,
2013-03-06 20:15:00,34.9,22.8,29.90,NE,45,0.0,-999.0,61,-99.99,,,0.00,Acu-Link.com,2013-03-07 01:15:00,
2013-03-06 20:30:00,34.0,22.4,29.90,West,270,1.1,-999.0,62,-99.99,,,0.00,Acu-Link.com,2013-03-07 01:30:00,
2013-03-06 20:45:00,33.4,22.6,29.91,SE,135,0.0,-999.0,64,-99.99,,,0.00,Acu-Link.com,2013-03-07 01:45:00,
2013-03-06 21:00:00,32.7,22.3,29.91,SSW,202,0.0,-999.0,65,-99.99,,,0.00,Acu-Link.com,2013-03-07 02:00:00,
2013-03-06 21:15:00,32.2,22.1,29.92,West,270,0.0,-999.0,66,-99.99,,,0.00,Acu-Link.com,2013-03-07 02:15:00,
2013-03-06 21:30:00,31.5,22.5,29.91,WNW,292,0.0,-999.0,69,-99.99,,,0.00,Acu-Link.com,2013-03-07 02:30:00,
2013-03-06 21:45:00,31.1,22.1,29.92,NNW,337,0.0,-999.0,69,-99.99,,,0.00,Acu-Link.com,2013-03-07 02:45:00,
2013-03-06 22:01:00,30.4,22.8,29.92,SSE,157,0.0,-999.0,73,-99.99,,,0.00,Acu-Link.com,2013-03-07 03:01:00,
2013-03-06 22:16:00,29.8,22.9,29.93,WNW,292,0.0,-999.0,75,-99.99,,,0.00,Acu-Link.com,2013-03-07 03:16:00,
2013-03-06 22:31:00,30.0,22.7,29.94,East,90,0.0,-999.0,74,-99.99,,,0.00,Acu-Link.com,2013-03-07 03:31:00,
2013-03-06 22:46:00,30.0,22.7,29.94,West,270,0.0,-999.0,74,-99.99,,,0.00,Acu-Link.com,2013-03-07 03:46:00,
2013-03-06 23:01:00,29.8,22.5,29.94,ESE,112,0.0,-999.0,74,-99.99,,,0.00,Acu-Link.com,2013-03-07 04:01:00,
2013-03-06 23:16:00,29.7,22.4,29.94,SSW,202,0.0,-999.0,74,-99.99,,,0.00,Acu-Link.com,2013-03-07 04:16:00,
2013-03-06 23:31:00,29.5,22.3,29.95,WNW,292,0.0,-999.0,74,-99.99,,,0.00,Acu-Link.com,2013-03-07 04:31:00,
2013-03-06 23:46:00,29.5,22.3,29.95,WNW,292,0.0,-999.0,74,-99.99,,,0.00,Acu-Link.com,2013-03-07 04:46:00,